createdAt,value
2018-06-09T00:00:19.085Z,58.11
2018-06-09T00:01:28.797Z,57.82
2018-06-09T00:02:38.838Z,58.11
2018-06-09T00:03:48.368Z,58.01
2018-06-09T00:04:58.334Z,58.4
2018-06-09T00:06:08.297Z,57.72
2018-06-09T00:07:18.261Z,58.3
2018-06-09T00:08:28.232Z,58.2
2018-06-09T00:09:38.230Z,58.11
2018-06-09T00:10:48.005Z,58.2
2018-06-09T00:11:57.972Z,58.4
2018-06-09T00:13:07.691Z,58.11
2018-06-09T00:14:17.662Z,58.97
2018-06-09T00:15:27.630Z,58.88
2018-06-09T00:16:37.336Z,59.17
2018-06-09T00:17:47.309Z,59.17
2018-06-09T00:18:57.281Z,59.27
2018-06-09T00:20:07.014Z,59.45
2018-06-09T00:21:17.043Z,59.65
2018-06-09T00:22:27.007Z,58.95
2018-06-09T00:23:36.724Z,59.55
2018-06-09T00:24:46.710Z,59.52
2018-06-09T00:25:56.662Z,59.14
2018-06-09T00:27:06.632Z,60
2018-06-09T00:28:16.607Z,60
2018-06-09T00:29:26.580Z,60.97
2018-06-09T00:30:36.550Z,60
2018-06-09T00:31:46.719Z,59.81
2018-06-09T00:32:56.682Z,59.81
2018-06-09T00:34:06.402Z,60.58
2018-06-09T00:35:16.111Z,60.68
2018-06-09T00:36:26.080Z,60.77
2018-06-09T00:37:36.054Z,60.77
2018-06-09T00:38:46.030Z,60.49
2018-06-09T00:39:55.741Z,60.77
2018-06-09T00:41:05.715Z,61.74
2018-06-09T00:42:14.912Z,61.83
2018-06-09T00:43:24.622Z,62.03
2018-06-09T00:44:34.592Z,62.03
2018-06-09T00:45:44.551Z,61.93
2018-06-09T00:46:54.268Z,61.74
2018-06-09T00:48:04.241Z,61.83
2018-06-09T00:49:14.228Z,61.93
2018-06-09T00:50:23.944Z,61.45
2018-06-09T00:51:33.925Z,62.6
2018-06-09T00:52:43.628Z,61.74
2018-06-09T00:53:53.597Z,62.09
2018-06-09T00:55:03.560Z,61.8
2018-06-09T00:56:13.266Z,62.19
2018-06-09T00:57:22.978Z,62.12
2018-06-09T00:58:32.955Z,62.48
2018-06-09T00:59:42.931Z,62.67
2018-06-09T01:00:52.401Z,62.48
2018-06-09T01:02:02.376Z,62.87
2018-06-09T01:03:12.357Z,62.87
2018-06-09T01:04:22.335Z,62.57
2018-06-09T01:05:31.524Z,62.48
2018-06-09T01:06:41.530Z,63.34
2018-06-09T01:07:51.501Z,63.25
2018-06-09T01:09:01.468Z,62.96
2018-06-09T01:10:11.454Z,63.44
2018-06-09T01:11:21.423Z,63.92
2018-06-09T01:12:31.152Z,63.64
2018-06-09T01:13:40.865Z,63.73
2018-06-09T01:14:50.871Z,63.92
2018-06-09T01:16:00.592Z,63.82
2018-06-09T01:17:10.549Z,64.12
2018-06-09T01:18:20.517Z,64.12
2018-06-09T01:19:30.295Z,63.73
2018-06-09T01:20:40.261Z,63.64
2018-06-09T01:21:50.245Z,64.21
2018-06-09T01:23:00.230Z,64.21
2018-06-09T01:24:09.950Z,64.59
2018-06-09T01:25:19.922Z,64.76
2018-06-09T01:26:29.910Z,63.99
2018-06-09T01:27:39.873Z,64.76
2018-06-09T01:28:49.841Z,65.24
2018-06-09T01:29:59.807Z,64.76
2018-06-09T01:31:09.536Z,65.53
2018-06-09T01:32:19.502Z,65.33
2018-06-09T01:33:28.957Z,65.81
2018-06-09T01:34:38.936Z,65.91
2018-06-09T01:35:48.911Z,66.01
2018-06-09T01:36:58.872Z,65.91
2018-06-09T01:38:08.849Z,66.1
2018-06-09T01:39:18.816Z,66.3
2018-06-09T01:40:28.782Z,66.1
2018-06-09T01:41:38.744Z,66.49
2018-06-09T01:42:48.449Z,66.39
2018-06-09T01:43:58.169Z,66.97
2018-06-09T01:45:08.142Z,66.97
2018-06-09T01:46:17.866Z,66.46
2018-06-09T01:47:27.830Z,66.88
2018-06-09T01:48:37.792Z,67.07
2018-06-09T01:49:47.504Z,67.42
2018-06-09T01:50:57.466Z,67.71
2018-06-09T01:52:07.203Z,67.32
2018-06-09T01:53:17.170Z,67.51
2018-06-09T01:54:26.870Z,67.51
2018-06-09T01:55:36.836Z,67.71
2018-06-09T01:56:46.814Z,67.71
2018-06-09T01:57:56.785Z,67.71
2018-06-09T01:59:06.755Z,67.8
2018-06-09T02:00:16.467Z,67.99
2018-06-09T02:01:26.433Z,67.99
2018-06-09T02:02:36.390Z,68.29
2018-06-09T02:03:46.090Z,68.67
2018-06-09T02:04:55.797Z,68.06
2018-06-09T02:06:05.803Z,68.63
2018-06-09T02:07:15.532Z,68.48
2018-06-09T02:08:25.496Z,68.48
2018-06-09T02:09:35.203Z,68.15
2018-06-09T02:10:45.170Z,68.48
2018-06-09T02:11:55.139Z,68.25
2018-06-09T02:13:05.104Z,68.54
2018-06-09T02:14:14.813Z,69.4
2018-06-09T02:15:24.535Z,68.67
2018-06-09T02:16:34.500Z,68.54
2018-06-09T02:17:44.210Z,69.12
2018-06-09T02:18:54.175Z,69.69
2018-06-09T02:20:03.892Z,68.73
2018-06-09T02:21:13.857Z,68.54
2018-06-09T02:22:23.580Z,69.12
2018-06-09T02:23:33.296Z,69.31
2018-06-09T02:24:43.276Z,69.21
2018-06-09T02:25:53.244Z,69.02
2018-06-09T02:27:03.217Z,69.5
2018-06-09T02:28:13.198Z,69.89
2018-06-09T02:29:23.170Z,70.07
2018-06-09T02:30:32.639Z,69.98
2018-06-09T02:31:42.417Z,69.31
2018-06-09T02:32:52.412Z,69.5
2018-06-09T02:34:02.406Z,69.31
2018-06-09T02:35:12.387Z,69.79
2018-06-09T02:36:22.356Z,69.6
2018-06-09T02:37:32.334Z,69.02
2018-06-09T02:38:42.037Z,69.5
2018-06-09T02:39:52.000Z,69.79
2018-06-09T02:41:02.193Z,70.07
2018-06-09T02:42:12.178Z,70.37
2018-06-09T02:43:21.902Z,70.94
2018-06-09T02:44:31.876Z,70.84
2018-06-09T02:45:41.855Z,70.46
2018-06-09T02:46:51.829Z,70.46
2018-06-09T02:48:01.804Z,70.46
2018-06-09T02:49:11.518Z,71.04
2018-06-09T02:50:21.493Z,70.75
2018-06-09T02:51:31.464Z,71.23
2018-06-09T02:52:41.436Z,71.61
2018-06-09T02:53:51.415Z,71.42
2018-06-09T02:55:01.129Z,71.71
2018-06-09T02:56:11.151Z,71.81
2018-06-09T02:57:21.152Z,71.81
2018-06-09T02:58:30.851Z,70.94
2018-06-09T02:59:40.586Z,71.61
2018-06-09T03:00:50.574Z,71.71
2018-06-09T03:02:00.293Z,71.61
2018-06-09T03:03:10.261Z,71.42
2018-06-09T03:04:20.234Z,71.81
2018-06-09T03:05:30.201Z,71.29
2018-06-09T03:06:40.176Z,71.67
2018-06-09T03:07:50.154Z,71.91
2018-06-09T03:09:00.173Z,72.48
2018-06-09T03:10:10.175Z,72.06
2018-06-09T03:11:20.163Z,72.06
2018-06-09T03:12:30.137Z,71.67
2018-06-09T03:13:39.615Z,72.64
2018-06-09T03:14:49.591Z,72.34
2018-06-09T03:15:59.565Z,72.34
2018-06-09T03:17:09.567Z,72.25
2018-06-09T03:18:19.293Z,72.44
2018-06-09T03:19:29.104Z,72.54
2018-06-09T03:20:39.084Z,72.44
2018-06-09T03:21:49.053Z,72.64
2018-06-09T03:22:59.028Z,72.73
2018-06-09T03:24:08.726Z,73.31
2018-06-09T03:25:18.692Z,73.41
2018-06-09T03:26:28.686Z,73.6
2018-06-09T03:27:38.663Z,73.41
2018-06-09T03:28:48.371Z,73.31
2018-06-09T03:29:58.076Z,73.02
2018-06-09T03:31:08.047Z,73.69
2018-06-09T03:32:17.531Z,73.6
2018-06-09T03:33:27.231Z,73.31
2018-06-09T03:34:37.199Z,74.17
2018-06-09T03:35:46.900Z,73.6
2018-06-09T03:36:56.608Z,73.5
2018-06-09T03:38:06.577Z,73.79
2018-06-09T03:39:16.285Z,73.69
2018-06-09T03:40:26.324Z,73.02
2018-06-09T03:41:36.297Z,73.11
2018-06-09T03:42:46.257Z,73.31
2018-06-09T03:43:56.226Z,72.83
2018-06-09T03:45:06.201Z,72.92
2018-06-09T03:46:16.173Z,73.31
2018-06-09T03:47:25.877Z,73.02
2018-06-09T03:48:35.845Z,72.73
2018-06-09T03:49:45.813Z,73.31
2018-06-09T03:50:55.783Z,73.31
2018-06-09T03:52:05.748Z,73.5
2018-06-09T03:53:15.718Z,72.83
2018-06-09T03:54:25.705Z,72.73
2018-06-09T03:55:35.464Z,73.02
2018-06-09T03:56:45.442Z,72.44
2018-06-09T03:57:55.428Z,72.73
2018-06-09T03:59:05.132Z,72.77
2018-06-09T04:00:14.846Z,72.58
2018-06-09T04:01:24.816Z,73.15
2018-06-09T04:02:34.829Z,72.86
2018-06-09T04:03:44.542Z,73.11
2018-06-09T04:04:54.524Z,72.96
2018-06-09T04:06:04.247Z,72.96
2018-06-09T04:07:13.963Z,72.77
2018-06-09T04:08:23.693Z,73.35
2018-06-09T04:09:33.658Z,73.06
2018-06-09T04:10:43.619Z,72.86
2018-06-09T04:11:53.334Z,72.96
2018-06-09T04:13:03.299Z,73.44
2018-06-09T04:14:13.006Z,73.35
2018-06-09T04:15:22.970Z,73.35
2018-06-09T04:16:32.690Z,73.54
2018-06-09T04:17:42.669Z,72.96
2018-06-09T04:18:52.646Z,72.86
2018-06-09T04:20:02.614Z,72.58
2018-06-09T04:21:12.573Z,72.96
2018-06-09T04:22:22.533Z,72.96
2018-06-09T04:23:32.236Z,72.86
2018-06-09T04:24:42.199Z,73.35
2018-06-09T04:25:52.177Z,73.15
2018-06-09T04:27:01.897Z,72.86
2018-06-09T04:28:11.615Z,72.61
2018-06-09T04:29:21.387Z,72.19
2018-06-09T04:30:31.101Z,72.38
2018-06-09T04:31:40.557Z,72.42
2018-06-09T04:32:50.531Z,72.19
2018-06-09T04:34:00.012Z,71.94
2018-06-09T04:35:10.035Z,72.13
2018-06-09T04:36:20.007Z,72.52
2018-06-09T04:37:29.722Z,72.52
2018-06-09T04:38:39.429Z,72.23
2018-06-09T04:39:49.197Z,71.84
2018-06-09T04:40:59.313Z,71.84
2018-06-09T04:42:09.283Z,72.03
2018-06-09T04:43:19.263Z,71.65
2018-06-09T04:44:29.226Z,71.94
2018-06-09T04:45:38.934Z,72.03
2018-06-09T04:46:48.852Z,71.84
2018-06-09T04:47:58.815Z,71.36
2018-06-09T04:49:08.780Z,71.78
2018-06-09T04:50:18.501Z,71.69
2018-06-09T04:51:28.217Z,71.84
2018-06-09T04:52:38.194Z,71.69
2018-06-09T04:53:48.168Z,71.69
2018-06-09T04:54:58.144Z,71.4
2018-06-09T04:56:07.860Z,71.11
2018-06-09T04:57:17.819Z,71.01
2018-06-09T04:58:27.880Z,70.53
2018-06-09T04:59:38.000Z,71.2
2018-06-09T05:00:47.721Z,70.82
2018-06-09T05:01:57.706Z,70.92
2018-06-09T05:03:07.674Z,70.53
2018-06-09T05:04:17.631Z,70.05
2018-06-09T05:05:27.356Z,70.47
2018-06-09T05:06:37.062Z,69.79
2018-06-09T05:07:47.056Z,70.28
2018-06-09T05:08:57.016Z,69.7
2018-06-09T05:10:06.219Z,68.26
2018-06-09T05:11:16.178Z,68.74
2018-06-09T05:12:26.163Z,68.84
2018-06-09T05:13:36.131Z,69.6
2018-06-09T05:14:45.586Z,68.74
2018-06-09T05:15:55.550Z,68.68
2018-06-09T05:17:05.517Z,68.54
2018-06-09T05:18:15.484Z,68.96
2018-06-09T05:19:25.607Z,68.87
2018-06-09T05:20:35.320Z,68.29
2018-06-09T05:21:45.291Z,67.71
2018-06-09T05:22:55.270Z,67.71
2018-06-09T05:24:05.248Z,67.71
2018-06-09T05:25:15.225Z,67.9
2018-06-09T05:26:25.317Z,67.52
2018-06-09T05:27:35.285Z,67.52
2018-06-09T05:28:44.997Z,67.71
2018-06-09T05:29:54.972Z,67.71
2018-06-09T05:31:04.955Z,67.74
2018-06-09T05:32:14.919Z,67.94
2018-06-09T05:33:24.917Z,67.46
2018-06-09T05:34:34.630Z,67.46
2018-06-09T05:35:44.374Z,66.78
2018-06-09T05:36:54.350Z,66.97
2018-06-09T05:38:04.325Z,66.01
2018-06-09T05:39:14.322Z,65.53
2018-06-09T05:40:24.035Z,66.49
2018-06-09T05:41:34.021Z,65.63
2018-06-09T05:42:43.992Z,65.17
2018-06-09T05:43:53.699Z,64.89
2018-06-09T05:45:03.665Z,65.37
2018-06-09T05:46:13.116Z,64.4
2018-06-09T05:47:23.110Z,64.4
2018-06-09T05:48:33.076Z,63.15
2018-06-09T05:49:42.798Z,63.34
2018-06-09T05:50:52.764Z,63.18
2018-06-09T05:52:02.722Z,63.15
2018-06-09T05:53:12.697Z,63.37
2018-06-09T05:54:22.404Z,63.09
2018-06-09T05:55:32.479Z,62.99
2018-06-09T05:56:41.946Z,63.37
2018-06-09T05:57:51.907Z,63.18
2018-06-09T05:59:01.098Z,62.7
2018-06-09T06:00:10.811Z,61.25
2018-06-09T06:01:20.803Z,62.02
2018-06-09T06:02:30.765Z,61.25
2018-06-09T06:03:40.483Z,60.48
2018-06-09T06:04:50.461Z,60.48
2018-06-09T06:06:00.428Z,61.09
2018-06-09T06:07:10.440Z,60.99
2018-06-09T06:08:19.948Z,60.99
2018-06-09T06:09:29.796Z,60.8
2018-06-09T06:10:39.766Z,60.51
2018-06-09T06:11:49.479Z,60.13
2018-06-09T06:12:59.452Z,59.55
2018-06-09T06:14:09.454Z,59.74
2018-06-09T06:15:19.163Z,59.28
2018-06-09T06:16:29.134Z,58.61
2018-06-09T06:17:38.836Z,57.93
2018-06-09T06:18:48.903Z,58.51
2018-06-09T06:19:59.021Z,59
2018-06-09T06:21:08.999Z,58.61
2018-06-09T06:22:18.992Z,57.06
2018-06-09T06:23:28.709Z,57.54
2018-06-09T06:24:38.438Z,58.12
2018-06-09T06:25:48.160Z,58.12
2018-06-09T06:26:58.129Z,58.22
2018-06-09T06:28:08.145Z,58.25
2018-06-09T06:29:17.850Z,58.45
2018-06-09T06:30:27.828Z,58.06
2018-06-09T06:31:37.808Z,58.54
2018-06-09T06:32:47.781Z,58.25
2018-06-09T06:33:57.780Z,58.06
2018-06-09T06:35:07.228Z,57.31
2018-06-09T06:36:17.218Z,56.45
2018-06-09T06:37:27.178Z,55.57
2018-06-09T06:38:37.160Z,56.83
2018-06-09T06:39:46.869Z,55.57
2018-06-09T06:40:56.587Z,54.9
2018-06-09T06:42:06.553Z,54.93
2018-06-09T06:43:16.280Z,54.44
2018-06-09T06:44:26.247Z,55.41
2018-06-09T06:45:35.957Z,54.44
2018-06-09T06:46:45.933Z,54.63
2018-06-09T06:47:55.925Z,54.44
2018-06-09T06:49:05.630Z,54.44
2018-06-09T06:50:15.663Z,53.28
2018-06-09T06:51:25.887Z,52.89
2018-06-09T06:52:35.861Z,53.47
2018-06-09T06:53:45.583Z,53.5
2018-06-09T06:54:55.548Z,53.41
2018-06-09T06:56:05.269Z,53.11
2018-06-09T06:57:15.241Z,52.53
2018-06-09T06:58:25.225Z,52.05
2018-06-09T06:59:35.235Z,51.88
2018-06-09T07:00:45.214Z,52.17
2018-06-09T07:01:55.189Z,52.08
2018-06-09T07:03:05.331Z,51.68
2018-06-09T07:04:15.059Z,52.17
2018-06-09T07:05:25.029Z,51.4
2018-06-09T07:06:34.488Z,51.01
2018-06-09T07:07:44.477Z,51.2
2018-06-09T07:08:54.539Z,51.62
2018-06-09T07:10:04.279Z,50.35
2018-06-09T07:11:14.270Z,50.84
2018-06-09T07:12:23.987Z,50.45
2018-06-09T07:13:33.545Z,50.65
2018-06-09T07:14:43.016Z,50.94
2018-06-09T07:15:52.724Z,50.29
2018-06-09T07:17:02.453Z,50.19
2018-06-09T07:18:12.469Z,49.61
2018-06-09T07:19:22.451Z,48.93
2018-06-09T07:20:32.442Z,49.22
2018-06-09T07:21:42.425Z,49.61
2018-06-09T07:22:52.385Z,49.99
2018-06-09T07:24:02.376Z,49.8
2018-06-09T07:25:12.346Z,49.24
2018-06-09T07:26:22.054Z,48.76
2018-06-09T07:27:32.042Z,48.44
2018-06-09T07:28:41.499Z,48.85
2018-06-09T07:29:51.246Z,48.57
2018-06-09T07:31:00.962Z,48.37
2018-06-09T07:32:10.944Z,48.08
2018-06-09T07:33:20.656Z,47.42
2018-06-09T07:34:30.116Z,47.62
2018-06-09T07:35:40.101Z,47.81
2018-06-09T07:36:50.071Z,47.81
2018-06-09T07:38:00.045Z,47.33
2018-06-09T07:39:10.025Z,47.13
2018-06-09T07:40:19.742Z,46.36
2018-06-09T07:41:28.942Z,46.96
2018-06-09T07:42:38.929Z,46.86
2018-06-09T07:43:48.897Z,46.65
2018-06-09T07:44:58.345Z,46.77
2018-06-09T07:46:08.054Z,46.48
2018-06-09T07:47:18.054Z,46.96
2018-06-09T07:48:28.022Z,46.48
2018-06-09T07:49:37.742Z,45.51
2018-06-09T07:50:47.472Z,45.99
2018-06-09T07:51:57.445Z,45.72
2018-06-09T07:53:07.164Z,45.34
2018-06-09T07:54:17.164Z,45.53
2018-06-09T07:55:27.155Z,45.43
2018-06-09T07:56:37.134Z,44.46
2018-06-09T07:57:46.852Z,45.62
2018-06-09T07:58:56.841Z,45.75
2018-06-09T08:00:06.548Z,45.07
2018-06-09T08:01:16.526Z,43.71
2018-06-09T08:02:26.255Z,44
2018-06-09T08:03:36.240Z,43.9
2018-06-09T08:04:46.224Z,44
2018-06-09T08:05:55.936Z,43.8
2018-06-09T08:07:05.939Z,43.34
2018-06-09T08:08:15.661Z,44.02
2018-06-09T08:09:25.631Z,43.73
2018-06-09T08:10:35.337Z,44.21
2018-06-09T08:11:45.325Z,44.21
2018-06-09T08:12:54.802Z,44.7
2018-06-09T08:14:04.941Z,44.31
2018-06-09T08:15:14.977Z,42.97
2018-06-09T08:16:24.972Z,42.87
2018-06-09T08:17:34.960Z,42.97
2018-06-09T08:18:44.679Z,43.16
2018-06-09T08:19:54.653Z,43.77
2018-06-09T08:21:04.655Z,40.95
2018-06-09T08:22:14.377Z,40.58
2018-06-09T08:23:24.089Z,40.56
2018-06-09T08:24:33.823Z,40.78
2018-06-09T08:25:43.813Z,41.14
2018-06-09T08:26:53.784Z,42.33
2018-06-09T08:28:03.758Z,40.58
2018-06-09T08:29:13.398Z,40.68
2018-06-09T08:30:22.904Z,40.58
2018-06-09T08:31:32.620Z,39.03
2018-06-09T08:32:42.604Z,39.43
2018-06-09T08:33:52.608Z,38.36
2018-06-09T08:35:02.077Z,38.46
2018-06-09T08:36:12.279Z,38.85
2018-06-09T08:37:22.065Z,38.28
2018-06-09T08:38:32.056Z,38.67
2018-06-09T08:39:41.777Z,38.75
2018-06-09T08:40:51.496Z,37.87
2018-06-09T08:42:01.664Z,38.28
2018-06-09T08:43:11.508Z,38.1
2018-06-09T08:44:20.979Z,37.04
2018-06-09T08:45:30.704Z,36.96
2018-06-09T08:46:40.166Z,36.1
2018-06-09T08:47:49.884Z,35.14
2018-06-09T08:48:59.887Z,34.96
2018-06-09T08:50:09.620Z,34.77
2018-06-09T08:51:19.610Z,34.77
2018-06-09T08:52:29.587Z,34.78
2018-06-09T08:53:39.581Z,34.58
2018-06-09T08:54:49.311Z,34.01
2018-06-09T08:55:59.296Z,32.45
2018-06-09T08:57:09.034Z,33.15
2018-06-09T08:58:19.036Z,32.76
2018-06-09T08:59:28.769Z,32.46
2018-06-09T09:00:38.497Z,32.07
2018-06-09T09:01:48.266Z,32.19
2018-06-09T09:02:58.253Z,32.09
2018-06-09T09:04:07.982Z,31.9
2018-06-09T09:05:17.718Z,31.52
2018-06-09T09:06:27.717Z,31.23
2018-06-09T09:07:37.695Z,30.93
2018-06-09T09:08:47.436Z,30.93
2018-06-09T09:09:57.168Z,31.99
2018-06-09T09:11:07.161Z,32.09
2018-06-09T09:12:17.145Z,30.52
2018-06-09T09:13:26.903Z,30.13
2018-06-09T09:14:36.880Z,30.52
2018-06-09T09:15:46.607Z,30.62
2018-06-09T09:16:56.069Z,30.82
2018-06-09T09:18:06.074Z,30.74
2018-06-09T09:19:16.078Z,30.15
2018-06-09T09:20:25.810Z,30.54
2018-06-09T09:21:35.824Z,30.54
2018-06-09T09:22:45.817Z,30.44
2018-06-09T09:23:55.548Z,29.68
2018-06-09T09:25:05.535Z,28.61
2018-06-09T09:26:15.276Z,28.53
2018-06-09T09:27:25.328Z,28.74
2018-06-09T09:28:35.318Z,27.66
2018-06-09T09:29:45.070Z,27.35
2018-06-09T09:30:54.817Z,27.64
2018-06-09T09:32:04.918Z,27.64
2018-06-09T09:33:14.994Z,27.84
2018-06-09T09:34:24.729Z,27.74
2018-06-09T09:35:34.465Z,27.84
2018-06-09T09:36:44.191Z,27.75
2018-06-09T09:37:54.182Z,27.36
2018-06-09T09:39:04.200Z,27.46
2018-06-09T09:40:14.211Z,27.75
2018-06-09T09:41:23.938Z,27.84
2018-06-09T09:42:33.941Z,27.25
2018-06-09T09:43:43.943Z,27.36
2018-06-09T09:44:53.955Z,27.17
2018-06-09T09:46:03.959Z,26.89
2018-06-09T09:47:13.947Z,26.51
2018-06-09T09:48:23.731Z,26.23
2018-06-09T09:49:33.737Z,26.43
2018-06-09T09:50:43.722Z,25.74
2018-06-09T09:51:53.703Z,25.27
2018-06-09T09:53:03.701Z,24.97
2018-06-09T09:54:13.724Z,25.37
2018-06-09T09:55:23.214Z,25.66
2018-06-09T09:56:33.192Z,25.94
2018-06-09T09:57:43.208Z,24.87
2018-06-09T09:58:53.207Z,24.88
2018-06-09T10:00:03.201Z,24.87
2018-06-09T10:01:13.190Z,25.65
2018-06-09T10:02:23.176Z,25.63
2018-06-09T10:03:33.152Z,25.55
2018-06-09T10:04:43.234Z,25.84
2018-06-09T10:05:53.203Z,25.65
2018-06-09T10:07:03.214Z,25.07
2018-06-09T10:08:12.943Z,25.94
2018-06-09T10:09:22.959Z,25.73
2018-06-09T10:10:32.956Z,25.73
2018-06-09T10:11:42.962Z,25.44
2018-06-09T10:12:52.944Z,25.35
2018-06-09T10:14:02.431Z,24.68
2018-06-09T10:15:12.426Z,25.27
2018-06-09T10:16:22.183Z,24.88
2018-06-09T10:17:32.196Z,24.38
2018-06-09T10:18:42.191Z,24.38
2018-06-09T10:19:51.929Z,24.76
2018-06-09T10:21:01.921Z,24.86
2018-06-09T10:22:11.914Z,24.29
2018-06-09T10:23:21.903Z,23.9
2018-06-09T10:24:31.896Z,23.8
2018-06-09T10:25:41.883Z,24.29
2018-06-09T10:26:51.626Z,24.49
2018-06-09T10:28:01.105Z,24.38
2018-06-09T10:29:10.862Z,24.86
2018-06-09T10:30:20.903Z,25.45
2018-06-09T10:31:30.626Z,24.86
2018-06-09T10:32:40.755Z,24.47
2018-06-09T10:33:50.891Z,25.05
2018-06-09T10:35:00.924Z,25.35
2018-06-09T10:36:10.676Z,24.37
2018-06-09T10:37:20.397Z,24.57
2018-06-09T10:38:30.406Z,24.47
2018-06-09T10:39:40.434Z,24.46
2018-06-09T10:40:50.437Z,25.44
2018-06-09T10:42:00.440Z,25.54
2018-06-09T10:43:10.436Z,24.46
2018-06-09T10:44:20.431Z,24.47
2018-06-09T10:45:30.145Z,23.51
2018-06-09T10:46:40.173Z,23.42
2018-06-09T10:47:49.909Z,23.54
2018-06-09T10:48:59.910Z,23.35
2018-06-09T10:50:09.638Z,22.36
2018-06-09T10:51:19.363Z,22.55
2018-06-09T10:52:29.120Z,22.55
2018-06-09T10:53:38.848Z,23.02
2018-06-09T10:54:48.837Z,23.79
2018-06-09T10:55:58.828Z,23.51
2018-06-09T10:57:08.836Z,23.99
2018-06-09T10:58:18.580Z,23.3
2018-06-09T10:59:28.592Z,23.41
2018-06-09T11:00:38.317Z,23.52
2018-06-09T11:01:48.311Z,23.32
2018-06-09T11:02:57.782Z,23.42
2018-06-09T11:04:07.500Z,23.51
2018-06-09T11:05:17.225Z,23.6
2018-06-09T11:06:27.216Z,23.6
2018-06-09T11:07:37.210Z,23.51
2018-06-09T11:08:46.943Z,23.51
2018-06-09T11:09:56.934Z,23.71
2018-06-09T11:11:06.869Z,23.31
2018-06-09T11:12:16.601Z,22.83
2018-06-09T11:13:26.585Z,22.25
2018-06-09T11:14:36.068Z,22.56
2018-06-09T11:15:46.057Z,22.47
2018-06-09T11:16:56.064Z,22.47
2018-06-09T11:18:05.532Z,23.24
2018-06-09T11:19:15.573Z,24.77
2018-06-09T11:20:25.556Z,24.66
2018-06-09T11:21:35.560Z,24.77
2018-06-09T11:22:45.539Z,24.77
2018-06-09T11:23:55.538Z,24.77
2018-06-09T11:25:05.529Z,23.99
2018-06-09T11:26:15.521Z,24.18
2018-06-09T11:27:25.245Z,23.32
2018-06-09T11:28:35.220Z,23.35
2018-06-09T11:29:44.957Z,23.06
2018-06-09T11:30:54.944Z,23.07
2018-06-09T11:32:04.947Z,23.36
2018-06-09T11:33:14.939Z,23.64
2018-06-09T11:34:24.966Z,23.73
2018-06-09T11:35:34.177Z,23.54
2018-06-09T11:36:44.187Z,22.38
2018-06-09T11:37:53.922Z,22.49
2018-06-09T11:39:03.926Z,22.51
2018-06-09T11:40:13.663Z,22.41
2018-06-09T11:41:23.669Z,22.5
2018-06-09T11:42:33.655Z,23.18
2018-06-09T11:43:43.697Z,23.38
2018-06-09T11:44:53.682Z,23.68
2018-06-09T11:46:03.680Z,22.78
2018-06-09T11:47:13.607Z,23.28
2018-06-09T11:48:23.272Z,23.38
2018-06-09T11:49:33.269Z,21.81
2018-06-09T11:50:43.011Z,21.44
2018-06-09T11:51:53.000Z,22.13
2018-06-09T11:53:03.015Z,22.91
2018-06-09T11:54:13.020Z,23.59
2018-06-09T11:55:22.755Z,23.28
2018-06-09T11:56:32.732Z,23.48
2018-06-09T11:57:42.696Z,23.57
2018-06-09T11:58:52.690Z,24.15
2018-06-09T12:00:02.458Z,23.55
2018-06-09T12:01:12.444Z,22.48
2018-06-09T12:02:22.441Z,21.81
2018-06-09T12:03:32.436Z,21.44
2018-06-09T12:04:42.445Z,22.44
2018-06-09T12:05:52.455Z,22.62
2018-06-09T12:07:02.473Z,22.93
2018-06-09T12:08:12.468Z,22.25
2018-06-09T12:09:22.457Z,22.36
2018-06-09T12:10:32.459Z,21.37
2018-06-09T12:11:42.461Z,21
2018-06-09T12:12:51.941Z,21.3
2018-06-09T12:14:01.423Z,20.2
2018-06-09T12:15:11.412Z,20.41
2018-06-09T12:16:21.154Z,21.1
2018-06-09T12:17:30.893Z,21.08
2018-06-09T12:18:40.938Z,20.98
2018-06-09T12:19:50.938Z,21.49
2018-06-09T12:21:00.420Z,21.29
2018-06-09T12:22:10.412Z,21.38
2018-06-09T12:23:20.421Z,21.18
2018-06-09T12:24:30.407Z,21.28
2018-06-09T12:25:39.882Z,22.55
2018-06-09T12:26:49.890Z,23.41
2018-06-09T12:27:59.374Z,23.49
2018-06-09T12:29:09.382Z,24.76
2018-06-09T12:30:19.119Z,24.34
2018-06-09T12:31:28.846Z,25.61
2018-06-09T12:32:38.993Z,25.99
2018-06-09T12:33:48.989Z,25.7
2018-06-09T12:34:58.996Z,25.32
2018-06-09T12:36:09.028Z,25.71
2018-06-09T12:37:18.257Z,24.92
2018-06-09T12:38:28.255Z,24.35
2018-06-09T12:39:38.266Z,23.48
2018-06-09T12:40:48.005Z,23.28
2018-06-09T12:41:58.006Z,22.5
2018-06-09T12:43:07.995Z,22.2
2018-06-09T12:44:18.008Z,21.14
2018-06-09T12:45:27.992Z,22.15
2018-06-09T12:46:37.744Z,22.64
2018-06-09T12:47:47.743Z,22.63
2018-06-09T12:48:57.496Z,23.11
2018-06-09T12:50:06.972Z,23.7
2018-06-09T12:51:16.965Z,24.29
2018-06-09T12:52:26.699Z,24.35
2018-06-09T12:53:36.432Z,24.64
2018-06-09T12:54:46.422Z,25.13
2018-06-09T12:55:56.352Z,25.34
2018-06-09T12:57:06.076Z,25.51
2018-06-09T12:58:16.070Z,25.71
2018-06-09T12:59:26.071Z,26.01
2018-06-09T13:00:35.794Z,25.31
2018-06-09T13:01:45.801Z,24.63
2018-06-09T13:02:55.779Z,24.65
2018-06-09T13:04:05.759Z,23.38
2018-06-09T13:05:15.550Z,23.21
2018-06-09T13:06:25.542Z,22.14
2018-06-09T13:07:35.539Z,21.96
2018-06-09T13:08:45.517Z,21.58
2018-06-09T13:09:55.261Z,22.07
2018-06-09T13:11:05.259Z,23.13
2018-06-09T13:12:15.262Z,23.97
2018-06-09T13:13:25.264Z,25.13
2018-06-09T13:14:35.017Z,24.91
2018-06-09T13:15:45.012Z,26.28
2018-06-09T13:16:55.027Z,26.46
2018-06-09T13:18:05.002Z,26.84
2018-06-09T13:19:16.304Z,27.32
2018-06-09T13:20:26.301Z,27.2
2018-06-09T13:21:36.307Z,27.7
2018-06-09T13:22:46.050Z,27.4
2018-06-09T13:23:56.051Z,27.69
2018-06-09T13:25:06.062Z,27.89
2018-06-09T13:26:16.048Z,26.92
2018-06-09T13:27:25.774Z,26.75
2018-06-09T13:28:35.497Z,26.46
2018-06-09T13:29:45.238Z,25.96
2018-06-09T13:30:54.969Z,25.88
2018-06-09T13:32:04.946Z,26.28
2018-06-09T13:33:14.935Z,26.26
2018-06-09T13:34:24.986Z,25.87
2018-06-09T13:35:34.743Z,25.59
2018-06-09T13:36:44.723Z,25.29
2018-06-09T13:37:54.702Z,25.29
2018-06-09T13:39:04.707Z,24.41
2018-06-09T13:40:14.685Z,24.41
2018-06-09T13:41:24.483Z,24.02
2018-06-09T13:42:34.496Z,24.63
2018-06-09T13:43:43.970Z,24.41
2018-06-09T13:44:53.960Z,24.53
2018-06-09T13:46:03.940Z,24.63
2018-06-09T13:47:13.692Z,24.41
2018-06-09T13:48:23.678Z,24.62
2018-06-09T13:49:33.686Z,24.12
2018-06-09T13:50:43.700Z,24.02
2018-06-09T13:51:53.688Z,23.53
2018-06-09T13:53:03.681Z,23.74
2018-06-09T13:54:13.715Z,23.17
2018-06-09T13:55:23.894Z,23.19
2018-06-09T13:56:33.616Z,23.88
2018-06-09T13:57:43.669Z,23.66
2018-06-09T13:58:53.681Z,24.92
2018-06-09T14:00:03.481Z,25.5
2018-06-09T14:01:13.517Z,25.88
2018-06-09T14:02:23.511Z,25.48
2018-06-09T14:03:33.513Z,25.87
2018-06-09T14:04:43.500Z,26.36
2018-06-09T14:05:53.506Z,26.36
2018-06-09T14:07:03.517Z,25.77
2018-06-09T14:08:13.499Z,25.48
2018-06-09T14:09:23.520Z,26.26
2018-06-09T14:10:33.531Z,26.25
2018-06-09T14:11:43.261Z,25.85
2018-06-09T14:12:53.021Z,25.56
2018-06-09T14:14:03.009Z,25.67
2018-06-09T14:15:12.981Z,25.28
2018-06-09T14:16:22.979Z,24.88
2018-06-09T14:17:33.010Z,24.99
2018-06-09T14:18:43.041Z,24.01
2018-06-09T14:19:52.791Z,22.66
2018-06-09T14:21:02.552Z,22.77
2018-06-09T14:22:12.023Z,22.77
2018-06-09T14:23:22.019Z,23.27
2018-06-09T14:24:32.005Z,23.66
2018-06-09T14:25:41.481Z,23.27
2018-06-09T14:26:51.543Z,22.49
2018-06-09T14:28:01.960Z,22.7
2018-06-09T14:29:12.010Z,22.51
2018-06-09T14:30:22.005Z,21.71
2018-06-09T14:31:32.005Z,21.83
2018-06-09T14:32:42.031Z,21.24
2018-06-09T14:33:51.934Z,21.15
2018-06-09T14:35:01.928Z,21.26
2018-06-09T14:36:11.953Z,20.78
2018-06-09T14:37:21.949Z,21.18
2018-06-09T14:38:31.665Z,20.48
2018-06-09T14:39:41.656Z,20.19
2018-06-09T14:40:51.658Z,19.89
2018-06-09T14:42:01.674Z,20.01
2018-06-09T14:43:11.674Z,20.21
2018-06-09T14:44:21.422Z,21.09
2018-06-09T14:45:31.163Z,21.56
2018-06-09T14:46:41.170Z,22.34
2018-06-09T14:47:50.919Z,22.52
2018-06-09T14:49:00.912Z,22.41
2018-06-09T14:50:10.651Z,22.6
2018-06-09T14:51:20.394Z,22.5
2018-06-09T14:52:30.375Z,23.68
2018-06-09T14:53:40.117Z,24.44
2018-06-09T14:54:50.208Z,24.73
2018-06-09T14:56:00.196Z,24.9
2018-06-09T14:57:10.216Z,24.51
2018-06-09T14:58:20.238Z,25.39
2018-06-09T14:59:29.699Z,25.08
2018-06-09T15:00:39.694Z,25.46
2018-06-09T15:01:49.753Z,25.56
2018-06-09T15:02:59.495Z,25.66